1887 Hurricane NOT_NAMED (1887285N11320)


IBTrACS version v04r00. Visit IBTrACS website for data access.
Please direct all questions to the IBTrACS Q and A forum

Storm track - Intensity - Wind Radii - Intensity Data - Source Data - All data

Summary Information

Storm ID 1887285N11320
Start Oct 12 00Z
Max Intensity 90 kt (Oct 16 18Z), 975 mb (Oct 16 12Z)
End Oct 20 12Z
ATCF IDs
Track status Best track data.

Storm track plot

Map of storm track

Intensity plots

Map of storm track

Radial wind information

No radial wind information for this storm


Position and Intensity Table

BASIN ISO_TIME_________ NATURE LAT LON MLC WIND MLC PRES
degrees north degrees east kts mb
NA 1887-10-12 00:00:00 TS 10.50 -40.50 30
NA 03:00:00 TS 10.76 -41.00 30
NA 06:00:00 TS 11.00 -41.50 30
NA 09:00:00 TS 11.20 -42.00 32
NA 12:00:00 TS 11.40 -42.50 35
NA 15:00:00 TS 11.65 -43.00 37
NA 18:00:00 TS 11.90 -43.50 40
NA 21:00:00 TS 12.08 -44.01 42
NA 1887-10-13 00:00:00 TS 12.30 -44.50 45
NA 03:00:00 TS 12.68 -44.95 47
NA 06:00:00 TS 13.10 -45.40 50
NA 09:00:00 TS 13.46 -45.92 52
NA 12:00:00 TS 13.80 -46.40 55
NA 15:00:00 TS 14.17 -46.76 57
NA 18:00:00 TS 14.50 -47.00 60
NA 21:00:00 TS 14.71 -47.12 62
NA 1887-10-14 00:00:00 TS 14.90 -47.20 65
NA 03:00:00 TS 15.14 -47.33 65
NA 06:00:00 TS 15.40 -47.50 65
NA 09:00:00 TS 15.64 -47.76 67
NA 12:00:00 TS 15.90 -48.00 70
NA 15:00:00 TS 16.23 -48.13 70
NA 18:00:00 TS 16.60 -48.20 70
NA 21:00:00 TS 16.99 -48.25 70
NA 1887-10-15 00:00:00 TS 17.40 -48.30 70
NA 03:00:00 TS 17.81 -48.41 70
NA 06:00:00 TS 18.20 -48.50 70
NA 09:00:00 TS 18.56 -48.52 72
NA 12:00:00 TS 18.90 -48.50 75
NA 15:00:00 TS 19.24 -48.46 75
NA 18:00:00 TS 19.60 -48.40 75
NA 21:00:00 TS 20.00 -48.37 77
NA 1887-10-16 00:00:00 TS 20.40 -48.30 80
NA 03:00:00 TS 20.76 -48.12 82
NA 06:00:00 TS 21.10 -47.90 85
NA 09:00:00 TS 21.43 -47.66 85
NA 12:00:00 TS 21.80 -47.50 85 975
NA 15:00:00 TS 22.28 -47.55 87
NA 18:00:00 TS 22.80 -47.70 90
NA 21:00:00 TS 23.27 -47.75 90
NA 1887-10-17 00:00:00 TS 23.70 -48.00 90
NA 03:00:00 TS 24.07 -48.66 90
NA 06:00:00 TS 24.40 -49.50 90
NA 09:00:00 TS 24.74 -50.32 87
NA 12:00:00 TS 25.00 -51.00 85
NA 15:00:00 TS 25.14 -51.33 82
NA 18:00:00 TS 25.20 -51.50 80
NA 21:00:00 TS 25.23 -51.75 77
NA 1887-10-18 00:00:00 TS 25.30 -52.00 75
NA 03:00:00 TS 25.48 -52.25 72
NA 06:00:00 TS 25.70 -52.50 70
NA 09:00:00 TS 25.85 -52.78 70
NA 12:00:00 TS 26.00 -53.00 70
NA 15:00:00 TS 26.19 -53.08 70
NA 18:00:00 TS 26.40 -53.10 70
NA 21:00:00 TS 26.60 -53.13 70
NA 1887-10-19 00:00:00 TS 26.80 -53.20 70
NA 03:00:00 TS 27.01 -53.38 67
NA 06:00:00 TS 27.20 -53.60 65
NA 09:00:00 TS 27.25 -53.79 62
NA 12:00:00 TS 27.50 -54.00 60
NA 15:00:00 TS 28.25 -54.24 57
NA 18:00:00 TS 29.20 -54.50 55
NA 21:00:00 TS 29.97 -54.75 50
NA 1887-10-20 00:00:00 TS 30.80 -55.00 45
NA 03:00:00 TS 31.89 -55.25 42
NA 06:00:00 ET 32.90 -55.50 40
NA 09:00:00 ET 33.56 -55.75 37
NA 12:00:00 ET 34.00 -56.00 35

Source Information

Agency Information
USA
TOKYO
CMA
HKO
NEWDELHI
REUNION
BOM
NADI
WELLINGTON
DS824
TD9636
TD9635
NEUMANN
MLC

All available IBTrACS Data

SEASON BASIN SUBBASIN ISO_TIME_________ NATURE LAT LON DIST2LAND LANDFALL IFLAG USA SSHS MLC LAT MLC LON MLC CLASS MLC WIND MLC PRES STORM SPEED STORM DIR
Year degrees north degrees east km km 1 degrees north degrees east kts mb kts degrees
1887 NA NA 1887-10-12 00:00:00 TS 10.50 -40.50 1379 1343 _____________O -1 10.50 -40.50 TD 30 11 298
1887 NA NA 03:00:00 TS 10.76 -41.00 1349 1315 _____________P -1 10.76 -41.00 TD 30 11 297
1887 NA NA 06:00:00 TS 11.00 -41.50 1315 1283 _____________O -1 11.00 -41.50 TD 30 11 294
1887 NA NA 09:00:00 TS 11.20 -42.00 1283 1254 _____________P -1 11.20 -42.00 TD 32 11 292
1887 NA NA 12:00:00 TS 11.40 -42.50 1254 1226 _____________O -1 11.40 -42.50 TS 35 11 295
1887 NA NA 15:00:00 TS 11.65 -43.00 1226 1209 _____________P -1 11.65 -43.00 TS 37 11 297
1887 NA NA 18:00:00 TS 11.90 -43.50 1209 1186 _____________O -1 11.90 -43.50 TS 40 11 293
1887 NA NA 21:00:00 TS 12.08 -44.01 1187 1166 _____________P -1 12.08 -44.01 TS 42 11 292
1887 NA NA 1887-10-13 00:00:00 TS 12.30 -44.50 1167 1160 _____________O -1 12.30 -44.50 TS 45 11 303
1887 NA NA 03:00:00 TS 12.68 -44.95 1168 1168 _____________P -1 12.68 -44.95 TS 47 12 312
1887 NA NA 06:00:00 TS 13.10 -45.40 1179 1173 _____________O -1 13.10 -45.40 TS 50 12 309
1887 NA NA 09:00:00 TS 13.46 -45.92 1185 1173 _____________P -1 13.46 -45.92 TS 52 12 306
1887 NA NA 12:00:00 TS 13.80 -46.40 1179 1175 _____________O -1 13.80 -46.40 TS 55 11 311
1887 NA NA 15:00:00 TS 14.17 -46.76 1191 1191 _____________P -1 14.17 -46.76 TS 57 9 320
1887 NA NA 18:00:00 TS 14.50 -47.00 1208 1208 _____________O -1 14.50 -47.00 TS 60 6 327
1887 NA NA 21:00:00 TS 14.71 -47.12 1222 1222 _____________P -1 14.71 -47.12 TS 62 4 334
1887 NA NA 1887-10-14 00:00:00 TS 14.90 -47.20 1236 1236 _____________O -1 14.90 -47.20 HU 65 5 335
1887 NA NA 03:00:00 TS 15.14 -47.33 1251 1251 _____________P -1 15.14 -47.33 HU 65 6 330
1887 NA NA 06:00:00 TS 15.40 -47.50 1270 1270 _____________O -1 15.40 -47.50 HU 65 6 320
1887 NA NA 09:00:00 TS 15.64 -47.76 1276 1276 _____________P -1 15.64 -47.76 HU 67 7 316
1887 NA NA 12:00:00 TS 15.90 -48.00 1297 1297 _____________O -1 15.90 -48.00 HU 70 7 329
1887 NA NA 15:00:00 TS 16.23 -48.13 1324 1324 _____________P -1 16.23 -48.13 HU 70 7 345
1887 NA NA 18:00:00 TS 16.60 -48.20 1361 1361 _____________O -1 16.60 -48.20 HU 70 8 352
1887 NA NA 21:00:00 TS 16.99 -48.25 1399 1399 _____________P -1 16.99 -48.25 HU 70 8 353
1887 NA NA 1887-10-15 00:00:00 TS 17.40 -48.30 1438 1438 _____________O -1 17.40 -48.30 HU 70 8 350
1887 NA NA 03:00:00 TS 17.81 -48.41 1474 1474 _____________P -1 17.81 -48.41 HU 70 8 347
1887 NA NA 06:00:00 TS 18.20 -48.50 1509 1509 _____________O -1 18.20 -48.50 HU 70 8 352
1887 NA NA 09:00:00 TS 18.56 -48.52 1550 1550 _____________P -1 18.56 -48.52 HU 72 7 0
1887 NA NA 12:00:00 TS 18.90 -48.50 1581 1581 _____________O -1 18.90 -48.50 HU 75 7 5
1887 NA NA 15:00:00 TS 19.24 -48.46 1612 1612 _____________P -1 19.24 -48.46 HU 75 7 8
1887 NA NA 18:00:00 TS 19.60 -48.40 1657 1657 _____________O -1 19.60 -48.40 HU 75 8 6
1887 NA NA 21:00:00 TS 20.00 -48.37 1698 1698 _____________P -1 20.00 -48.37 HU 77 8 7
1887 NA NA 1887-10-16 00:00:00 TS 20.40 -48.30 1739 1739 _____________O -1 20.40 -48.30 HU 80 8 17
1887 NA NA 03:00:00 TS 20.76 -48.12 1782 1782 _____________P -1 20.76 -48.12 HU 82 8 28
1887 NA NA 06:00:00 TS 21.10 -47.90 1819 1819 _____________O -1 21.10 -47.90 HU 85 8 33
1887 NA NA 09:00:00 TS 21.43 -47.66 1856 1856 _____________P -1 21.43 -47.66 HU 85 8 28
1887 NA NA 12:00:00 TS 21.80 -47.50 1900 1900 _____________O -1 21.80 -47.50 HU 85 975 9 7
1887 NA NA 15:00:00 TS 22.28 -47.55 1935 1920 _____________P -1 22.28 -47.55 HU 87 10 349
1887 NA NA 18:00:00 TS 22.80 -47.70 1925 1925 _____________O -1 22.80 -47.70 HU 90 10 349
1887 NA NA 21:00:00 TS 23.27 -47.75 1927 1918 _____________P -1 23.27 -47.75 HU 90 9 343
1887 NA NA 1887-10-17 00:00:00 TS 23.70 -48.00 1918 1868 _____________O -1 23.70 -48.00 HU 90 12 314
1887 NA NA 03:00:00 TS 24.07 -48.66 1861 1794 _____________P -1 24.07 -48.66 HU 90 15 297
1887 NA NA 06:00:00 TS 24.40 -49.50 1794 1730 _____________O -1 24.40 -49.50 HU 90 17 294
1887 NA NA 09:00:00 TS 24.74 -50.32 1730 1677 _____________P -1 24.74 -50.32 HU 87 15 294
1887 NA NA 12:00:00 TS 25.00 -51.00 1677 1654 _____________O -1 25.00 -51.00 HU 85 10 294
1887 NA NA 15:00:00 TS 25.14 -51.33 1654 1640 _____________P -1 25.14 -51.33 HU 82 5 294
1887 NA NA 18:00:00 TS 25.20 -51.50 1640 1622 _____________O -1 25.20 -51.50 HU 80 4 284
1887 NA NA 21:00:00 TS 25.23 -51.75 1613 1599 _____________P -1 25.23 -51.75 HU 77 5 282
1887 NA NA 1887-10-18 00:00:00 TS 25.30 -52.00 1599 1586 _____________O -1 25.30 -52.00 HU 75 5 299
1887 NA NA 03:00:00 TS 25.48 -52.25 1591 1575 _____________P -1 25.48 -52.25 HU 72 6 312
1887 NA NA 06:00:00 TS 25.70 -52.50 1575 1554 _____________O -1 25.70 -52.50 HU 70 6 307
1887 NA NA 09:00:00 TS 25.85 -52.78 1560 1548 _____________P -1 25.85 -52.78 HU 70 5 304
1887 NA NA 12:00:00 TS 26.00 -53.00 1548 1545 _____________O -1 26.00 -53.00 HU 70 4 322
1887 NA NA 15:00:00 TS 26.19 -53.08 1551 1551 _____________P -1 26.19 -53.08 HU 70 4 348
1887 NA NA 18:00:00 TS 26.40 -53.10 1563 1563 _____________O -1 26.40 -53.10 HU 70 4 355
1887 NA NA 21:00:00 TS 26.60 -53.13 1575 1573 _____________P -1 26.60 -53.13 HU 70 4 348
1887 NA NA 1887-10-19 00:00:00 TS 26.80 -53.20 1579 1575 _____________O -1 26.80 -53.20 HU 70 5 331
1887 NA NA 03:00:00 TS 27.01 -53.38 1575 1572 _____________P -1 27.01 -53.38 HU 67 5 318
1887 NA NA 06:00:00 TS 27.20 -53.60 1572 1557 _____________O -1 27.20 -53.60 HU 65 4 304
1887 NA NA 09:00:00 TS 27.25 -53.79 1563 1554 _____________P -1 27.25 -53.79 HU 62 5 310
1887 NA NA 12:00:00 TS 27.50 -54.00 1561 1560 _____________O -1 27.50 -54.00 TS 60 11 338
1887 NA NA 15:00:00 TS 28.25 -54.24 1603 1596 _____________P -1 28.25 -54.24 TS 57 18 345
1887 NA NA 18:00:00 TS 29.20 -54.50 1650 1650 _____________O -1 29.20 -54.50 TS 55 18 346
1887 NA NA 21:00:00 TS 29.97 -54.75 1694 1688 _____________P -1 29.97 -54.75 TS 50 17 345
1887 NA NA 1887-10-20 00:00:00 TS 30.80 -55.00 1679 1573 _____________O -1 30.80 -55.00 TS 45 20 347
1887 NA NA 03:00:00 TS 31.89 -55.25 1563 1450 _____________P -1 31.89 -55.25 TS 42 22 349
1887 NA NA 06:00:00 ET 32.90 -55.50 1450 1381 _____________O -1 32.90 -55.50 EX 40 17 346
1887 NA NA 09:00:00 ET 33.56 -55.75 1367 1319 _____________P -1 33.56 -55.75 EX 37 12 339
1887 NA NA 12:00:00 ET 34.00 -56.00 1319 _____________O -1 34.00 -56.00 EX 35 10 335